createdAt,value
2023-03-23T15:58:53.790Z,606.47
2023-03-23T16:01:23.266Z,506.25
2023-03-23T16:03:55.526Z,475.98
2023-03-23T16:06:25.681Z,536.08
2023-03-23T16:08:56.304Z,595.38
2023-03-23T16:11:25.637Z,601.83
2023-03-23T16:13:52.617Z,588.85
2023-03-23T16:16:42.209Z,569.83
2023-03-23T16:19:13.526Z,526.92
2023-03-23T16:21:41.245Z,421.98
2023-03-23T16:24:08.912Z,423.35
2023-03-23T16:26:36.381Z,395.85
2023-03-23T16:29:16.051Z,402.58
2023-03-23T16:31:51.685Z,473.55
2023-03-23T16:34:19.113Z,517.05
2023-03-23T16:36:46.052Z,539.00
2023-03-23T16:39:13.218Z,566.47
2023-03-23T16:41:41.026Z,599.97
2023-03-23T16:44:08.670Z,583.83
2023-03-23T16:46:36.147Z,523.33
2023-03-23T16:49:03.462Z,555.05
2023-03-23T16:51:31.120Z,569.65
2023-03-23T16:53:58.442Z,547.92
2023-03-23T16:56:25.889Z,507.25
2023-03-23T16:58:53.244Z,527.72
2023-03-23T17:01:20.990Z,530.03
2023-03-23T17:03:48.379Z,468.05
2023-03-23T17:06:15.888Z,477.45
2023-03-23T17:08:43.106Z,522.63
2023-03-23T17:11:11.137Z,525.15
2023-03-23T17:13:38.517Z,524.17
2023-03-23T17:16:06.571Z,529.25
2023-03-23T17:18:34.159Z,525.85
2023-03-23T17:21:01.503Z,499.92
2023-03-23T17:23:28.647Z,506.63
2023-03-23T17:25:55.871Z,472.27
2023-03-23T17:28:23.271Z,418.48
2023-03-23T17:30:51.389Z,428.30
2023-03-23T17:33:18.705Z,422.63
2023-03-23T17:35:47.379Z,407.50
2023-03-23T17:38:15.460Z,398.70
2023-03-23T17:40:42.559Z,386.70
2023-03-23T17:43:09.951Z,344.05
2023-03-23T17:45:37.322Z,331.25
2023-03-23T17:48:07.325Z,347.25
2023-03-23T17:50:35.468Z,317.80
2023-03-23T17:53:02.978Z,290.63
2023-03-23T17:55:30.383Z,259.38
2023-03-23T17:57:57.731Z,275.27
2023-03-23T18:00:25.908Z,253.38
2023-03-23T18:02:52.992Z,268.17
2023-03-23T18:05:20.206Z,245.15
2023-03-23T18:07:47.499Z,218.98
2023-03-23T18:10:15.093Z,205.48
2023-03-23T18:12:42.291Z,181.80
2023-03-23T18:15:09.774Z,156.50
2023-03-23T18:17:36.847Z,151.05
2023-03-23T18:20:05.023Z,139.25
2023-03-23T18:22:32.320Z,146.15
2023-03-23T18:25:00.735Z,137.65
2023-03-23T18:27:28.471Z,145.40
2023-03-23T18:29:55.897Z,126.40
2023-03-23T18:32:23.287Z,143.05
2023-03-23T18:34:50.789Z,142.60
2023-03-23T18:37:17.941Z,146.25
2023-03-23T18:39:45.280Z,147.70
2023-03-23T18:42:12.547Z,146.38
2023-03-23T18:44:40.357Z,146.25
2023-03-23T18:47:07.876Z,134.13
2023-03-23T18:49:35.250Z,156.00
2023-03-23T18:52:02.496Z,96.03
2023-03-23T18:54:34.393Z,119.57
2023-03-23T18:57:02.468Z,107.15
2023-03-23T18:59:34.214Z,111.25
2023-03-23T19:02:02.393Z,112.18
2023-03-23T19:04:31.688Z,123.50
2023-03-23T19:06:59.753Z,126.40
2023-03-23T19:09:28.954Z,138.98
2023-03-23T19:11:56.468Z,111.03
2023-03-23T19:14:23.468Z,109.20
2023-03-23T19:16:50.351Z,95.43
2023-03-23T19:19:17.945Z,90.97
2023-03-23T19:21:47.044Z,100.07
2023-03-23T19:24:14.744Z,109.22
2023-03-23T19:26:42.952Z,127.93
2023-03-23T19:31:44.640Z,121.13
2023-03-23T19:34:13.327Z,119.78
2023-03-23T19:36:40.580Z,123.03
2023-03-23T19:39:08.833Z,132.82
2023-03-23T19:41:36.587Z,132.93
2023-03-23T19:44:03.962Z,146.70
2023-03-23T19:46:31.692Z,121.25
2023-03-23T19:48:59.156Z,111.68
2023-03-23T19:51:27.065Z,90.93
2023-03-23T19:53:56.217Z,86.93
2023-03-23T19:56:24.090Z,102.28
2023-03-23T19:58:51.912Z,94.53
2023-03-23T20:01:19.440Z,81.70
2023-03-23T20:03:47.979Z,89.03
2023-03-23T20:06:15.648Z,99.40
2023-03-23T20:08:44.476Z,67.55
2023-03-23T20:11:13.534Z,68.63
2023-03-23T20:13:41.112Z,42.75
2023-03-23T20:16:08.595Z,49.63
2023-03-23T20:18:37.823Z,43.90
2023-03-23T20:21:10.195Z,28.45
2023-03-23T20:23:38.643Z,36.60
2023-03-23T20:26:30.694Z,21.80
2023-03-23T20:28:58.769Z,24.13
2023-03-23T20:31:30.489Z,21.08
2023-03-23T20:34:01.991Z,15.70
2023-03-23T20:36:35.304Z,28.05
2023-03-23T20:39:08.219Z,14.23
2023-03-23T20:41:36.305Z,21.10
2023-03-23T20:44:04.855Z,17.83
2023-03-23T20:46:32.296Z,19.20
2023-03-23T20:49:00.691Z,12.00
2023-03-23T20:51:28.215Z,16.23
2023-03-23T20:53:55.321Z,12.88
2023-03-23T20:56:22.730Z,14.05
2023-03-23T20:58:50.872Z,12.95
2023-03-23T21:01:18.015Z,16.27
2023-03-23T21:03:45.465Z,16.48
2023-03-23T21:06:12.874Z,18.15
2023-03-23T21:08:40.466Z,17.30
2023-03-23T21:11:09.590Z,17.48
2023-03-23T21:13:37.427Z,15.05
2023-03-23T21:16:05.208Z,18.77
2023-03-23T21:18:32.613Z,14.65
2023-03-23T21:21:00.141Z,18.00
2023-03-23T21:23:29.239Z,15.18
2023-03-23T21:26:04.232Z,16.98
2023-03-23T21:28:31.550Z,17.75
2023-03-23T21:31:05.808Z,18.80
2023-03-23T21:33:33.102Z,27.20
2023-03-23T21:36:00.881Z,29.85
2023-03-23T21:38:28.293Z,22.30
2023-03-23T21:40:58.502Z,24.55
2023-03-23T21:43:29.080Z,30.67
2023-03-23T21:45:58.596Z,29.05
2023-03-23T21:48:26.865Z,27.15
2023-03-23T21:50:54.240Z,26.80
2023-03-23T21:53:22.025Z,30.73
2023-03-23T21:55:54.297Z,33.63
2023-03-23T21:58:27.040Z,30.52
2023-03-23T22:00:54.990Z,31.40
2023-03-23T22:06:20.598Z,29.35
2023-03-23T22:08:48.209Z,31.33
2023-03-23T22:11:23.397Z,37.05
2023-03-23T22:13:52.457Z,34.92
2023-03-23T22:16:20.499Z,36.10
2023-03-23T22:18:48.201Z,35.70
2023-03-23T22:21:16.536Z,31.10
2023-03-23T22:23:44.436Z,31.55
2023-03-23T22:26:12.133Z,39.10
2023-03-23T22:28:40.053Z,40.05
2023-03-23T22:31:11.710Z,31.52
2023-03-23T22:33:39.784Z,32.72
2023-03-23T22:36:07.325Z,33.67
2023-03-23T22:38:35.982Z,31.92
2023-03-23T22:41:06.445Z,33.22
2023-03-23T22:43:37.315Z,30.25
2023-03-23T22:46:05.324Z,30.88
2023-03-23T22:48:32.866Z,37.10
2023-03-23T22:51:00.207Z,34.00
2023-03-23T22:53:27.770Z,34.33
2023-03-23T22:55:56.171Z,32.17
2023-03-23T22:58:24.640Z,38.70
2023-03-23T23:00:57.236Z,41.13
2023-03-23T23:05:52.851Z,47.33
2023-03-23T23:08:20.275Z,38.45
2023-03-23T23:10:49.398Z,48.17
2023-03-23T23:13:17.132Z,52.70
2023-03-23T23:15:47.137Z,49.40
2023-03-23T23:18:14.665Z,43.67
2023-03-23T23:20:42.586Z,47.25
2023-03-23T23:23:10.276Z,41.80
2023-03-23T23:25:37.775Z,39.33
2023-03-23T23:28:05.578Z,42.53
2023-03-23T23:30:33.253Z,51.05
2023-03-23T23:33:00.737Z,47.25
2023-03-23T23:35:28.282Z,51.80
2023-03-23T23:37:55.741Z,41.97
2023-03-23T23:40:22.887Z,49.10
2023-03-23T23:42:51.163Z,42.40
2023-03-23T23:45:18.729Z,40.08
2023-03-23T23:47:46.919Z,45.28
2023-03-23T23:50:14.547Z,40.42
2023-03-23T23:52:42.388Z,52.97
2023-03-23T23:55:09.668Z,50.03
2023-03-23T23:57:37.068Z,34.67
